createdAt,value
2019-04-23T00:01:23.872Z,97452.00
2019-04-23T00:06:43.306Z,97453.00
2019-04-23T00:11:33.982Z,97448.00
2019-04-23T00:16:44.788Z,97433.00
2019-04-23T00:22:05.479Z,97424.00
2019-04-23T00:32:44.627Z,97416.00
2019-04-23T00:37:49.660Z,97407.00
2019-04-23T00:47:54.768Z,97420.00
2019-04-23T00:53:12.029Z,97407.00
2019-04-23T00:58:25.030Z,97412.00
2019-04-23T01:03:47.330Z,97415.00
2019-04-23T01:08:38.816Z,97411.00
2019-04-23T01:18:53.957Z,97396.00
2019-04-23T01:24:08.106Z,97386.00
2019-04-23T01:29:48.715Z,97386.00
2019-04-23T01:34:56.225Z,97378.00
2019-04-23T01:40:00.098Z,97377.00
2019-04-23T01:45:20.043Z,97372.00
2019-04-23T01:50:20.475Z,97362.00
2019-04-23T02:00:41.051Z,97349.00
2019-04-23T02:05:55.781Z,97338.00
2019-04-23T02:10:56.744Z,97334.00
2019-04-23T02:16:21.428Z,97327.00
2019-04-23T02:21:35.239Z,97321.00
2019-04-23T02:32:03.577Z,97318.00
2019-04-23T02:47:47.878Z,97286.00
2019-04-23T02:57:41.538Z,97281.00
2019-04-23T03:02:59.144Z,97270.00
2019-04-23T03:08:13.797Z,97272.00
2019-04-23T03:29:10.700Z,97241.00
2019-04-23T03:35:30.964Z,97246.00
2019-04-23T03:39:19.071Z,97238.00
2019-04-23T03:44:49.478Z,97232.00
2019-04-23T03:50:15.786Z,97226.00
2019-04-23T03:55:15.635Z,97226.00
2019-04-23T04:05:45.721Z,97211.00
2019-04-23T04:10:55.044Z,97204.00
2019-04-23T04:15:57.189Z,97198.00
2019-04-23T04:26:14.287Z,97202.00
2019-04-23T04:31:25.241Z,97194.00
2019-04-23T04:37:11.856Z,97191.00
2019-04-23T04:41:59.393Z,97183.00
2019-04-23T04:46:50.389Z,97182.00
2019-04-23T04:57:28.382Z,97162.00
2019-04-23T05:12:56.395Z,97135.00
2019-04-23T05:18:09.907Z,97148.00
2019-04-23T05:28:20.408Z,97134.00
2019-04-23T05:43:47.515Z,97135.00
2019-04-23T05:54:08.466Z,97144.00
2019-04-23T05:59:16.386Z,97159.00
2019-04-23T06:04:24.837Z,97143.00
2019-04-23T06:09:32.448Z,97143.00
2019-04-23T06:14:43.768Z,97138.00
2019-04-23T06:20:01.082Z,97128.00
2019-04-23T06:25:35.878Z,97129.00
2019-04-23T06:30:24.299Z,97131.00
2019-04-23T06:35:23.841Z,97120.00
2019-04-23T06:40:35.821Z,97137.00
2019-04-23T06:46:01.356Z,97130.00
2019-04-23T06:51:04.265Z,97130.00
2019-04-23T07:01:17.591Z,97116.00
2019-04-23T07:06:38.385Z,97139.00
2019-04-23T07:11:39.290Z,97126.00
2019-04-23T07:16:46.962Z,97116.00
2019-04-23T07:22:06.673Z,97112.00
2019-04-23T07:27:11.846Z,97121.00
2019-04-23T07:32:15.155Z,97132.00
2019-04-23T07:37:34.383Z,97110.00
2019-04-23T07:42:44.605Z,97106.00
2019-04-23T07:48:12.398Z,97124.00
2019-04-23T07:53:17.017Z,97111.00
2019-04-23T07:58:29.234Z,97107.00
2019-04-23T08:03:40.085Z,97105.00
2019-04-23T08:19:05.564Z,97089.00
2019-04-23T08:24:21.722Z,97085.00
2019-04-23T08:29:26.765Z,97075.00
2019-04-23T08:34:48.405Z,97086.00
2019-04-23T08:39:46.465Z,97072.00
2019-04-23T08:50:34.028Z,97069.00
2019-04-23T08:55:46.448Z,97056.00
2019-04-23T09:06:06.235Z,97050.00
2019-04-23T09:11:30.468Z,97064.00
2019-04-23T09:16:29.251Z,97051.00
2019-04-23T09:21:32.636Z,97064.00
2019-04-23T09:26:53.605Z,97059.00
2019-04-23T09:32:22.334Z,97061.00
2019-04-23T09:37:35.142Z,97058.00
2019-04-23T09:42:54.386Z,97069.00
2019-04-23T09:48:01.092Z,97044.00
2019-04-23T09:53:11.172Z,97055.00
2019-04-23T09:58:34.594Z,97035.00
2019-04-23T10:03:20.996Z,97050.00
2019-04-23T10:08:24.247Z,97055.00
2019-04-23T10:13:29.570Z,97044.00
2019-04-23T10:18:39.233Z,97041.00
2019-04-23T10:23:47.684Z,97049.00
2019-04-23T10:29:02.264Z,97045.00
2019-04-23T10:34:12.255Z,97043.00
2019-04-23T10:39:25.830Z,97029.00
2019-04-23T10:44:33.443Z,97041.00
2019-04-23T10:50:35.846Z,97038.00
2019-04-23T10:55:51.102Z,97029.00
2019-04-23T11:00:53.794Z,97015.00
2019-04-23T11:06:15.088Z,96987.00
2019-04-23T11:11:22.215Z,97004.00
2019-04-23T11:21:55.422Z,96983.00
2019-04-23T11:32:05.920Z,96985.00
2019-04-23T11:57:59.321Z,96991.00
2019-04-23T12:02:58.852Z,97001.00
2019-04-23T12:08:26.772Z,97000.00
2019-04-23T12:18:43.233Z,97015.00
2019-04-23T12:24:00.821Z,97006.00
2019-04-23T12:28:57.134Z,97000.00
2019-04-23T12:34:05.116Z,96992.00
2019-04-23T12:44:25.456Z,96971.00
2019-04-23T12:50:01.783Z,96986.00
2019-04-23T12:54:59.025Z,96993.00
2019-04-23T12:59:58.409Z,96996.00
2019-04-23T13:05:25.907Z,96976.00
2019-04-23T13:15:30.040Z,96967.00
2019-04-23T13:20:51.682Z,96954.00
2019-04-23T13:26:18.420Z,96952.00
2019-04-23T13:36:36.258Z,96957.00
2019-04-23T13:41:39.117Z,96945.00
2019-04-23T13:47:02.964Z,96938.00
2019-04-23T13:52:24.263Z,96940.00
2019-04-23T14:07:48.471Z,96947.00
2019-04-23T14:18:29.062Z,96940.00
2019-04-23T14:23:29.335Z,96937.00
2019-04-23T14:33:50.622Z,96934.00
2019-04-23T14:38:49.724Z,96930.00
2019-04-23T14:44:00.494Z,96936.00
2019-04-23T14:49:16.139Z,96934.00
2019-04-23T14:54:33.331Z,96931.00
2019-04-23T14:59:19.867Z,96939.00
2019-04-23T15:04:48.293Z,96921.00
2019-04-23T15:10:01.204Z,96912.00
2019-04-23T15:15:21.141Z,96935.00
2019-04-23T15:20:33.143Z,96923.00
2019-04-23T15:25:54.537Z,96933.00
2019-04-23T15:30:52.122Z,96916.00
2019-04-23T15:36:21.976Z,96924.00
2019-04-23T15:41:15.188Z,96933.00
2019-04-23T15:46:25.461Z,96939.00
2019-04-23T15:51:35.163Z,96929.00
2019-04-23T15:56:50.541Z,96939.00
2019-04-23T16:01:41.322Z,96936.00
2019-04-23T16:06:41.556Z,96939.00
2019-04-23T16:12:17.332Z,96922.00
2019-04-23T16:17:28.899Z,96939.00
2019-04-23T16:22:36.624Z,96948.00
2019-04-23T16:27:49.167Z,96965.00
2019-04-23T16:33:10.412Z,96953.00
2019-04-23T16:48:44.027Z,96954.00
2019-04-23T16:53:42.654Z,96961.00
2019-04-23T16:59:02.659Z,96949.00
2019-04-23T17:04:05.028Z,96952.00
2019-04-23T17:09:10.189Z,96959.00
2019-04-23T17:14:18.756Z,96966.00
2019-04-23T17:19:38.274Z,96957.00
2019-04-23T17:24:40.330Z,96971.00
2019-04-23T17:29:51.043Z,96971.00
2019-04-23T17:35:09.585Z,96974.00
2019-04-23T17:40:24.011Z,96974.00
2019-04-23T17:50:56.637Z,96969.00
2019-04-23T17:56:18.507Z,96972.00
2019-04-23T18:06:37.650Z,96971.00
2019-04-23T18:11:52.363Z,96953.00
2019-04-23T18:17:11.450Z,96964.00
2019-04-23T18:22:07.056Z,96965.00
2019-04-23T18:27:18.009Z,96969.00
2019-04-23T18:32:33.549Z,96963.00
2019-04-23T18:37:34.608Z,96956.00
2019-04-23T18:48:33.019Z,96962.00
2019-04-23T18:53:40.758Z,96941.00
2019-04-23T19:04:09.885Z,96953.00
2019-04-23T19:14:24.512Z,96957.00
2019-04-23T19:19:30.944Z,96950.00
2019-04-23T19:24:40.023Z,96959.00
2019-04-23T19:29:48.007Z,96949.00
2019-04-23T19:34:56.325Z,96956.00
2019-04-23T19:40:00.270Z,96951.00
2019-04-23T19:45:23.560Z,96948.00
2019-04-23T19:50:34.322Z,96947.00
2019-04-23T19:55:57.117Z,96947.00
2019-04-23T20:06:12.293Z,96945.00
2019-04-23T20:11:13.514Z,96947.00
2019-04-23T20:16:31.419Z,96953.00
2019-04-23T20:21:38.821Z,96946.00
2019-04-23T20:26:45.728Z,96942.00
2019-04-23T20:37:06.650Z,96944.00
2019-04-23T20:42:34.611Z,96939.00
2019-04-23T20:47:32.615Z,96940.00
2019-04-23T20:52:44.812Z,96942.00
2019-04-23T20:58:00.667Z,96940.00
2019-04-23T21:03:25.852Z,96936.00
2019-04-23T21:08:14.776Z,96923.00
2019-04-23T21:13:41.369Z,96930.00
2019-04-23T21:28:58.795Z,96929.00
2019-04-23T21:34:17.376Z,96933.00
2019-04-23T21:39:46.170Z,96943.00
2019-04-23T21:44:41.990Z,96942.00
2019-04-23T21:50:03.179Z,96936.00
2019-04-23T21:55:02.426Z,96947.00
2019-04-23T22:00:24.048Z,96942.00
2019-04-23T22:05:45.926Z,96942.00
2019-04-23T22:10:57.416Z,96938.00
2019-04-23T22:16:11.032Z,96941.00
2019-04-23T22:26:28.555Z,96925.00
2019-04-23T22:36:57.975Z,96910.00
2019-04-23T23:08:59.878Z,96914.00
2019-04-23T23:19:42.672Z,96911.00
2019-04-23T23:24:18.220Z,96914.00
2019-04-23T23:29:28.234Z,96893.00
2019-04-23T23:35:02.654Z,96908.00
2019-04-23T23:40:11.076Z,96901.00
2019-04-23T23:45:14.474Z,96907.00
2019-04-23T23:50:30.327Z,96903.00
2019-04-23T23:55:38.462Z,96890.00
